Time;durP1;ratioP1;P1;durP2;ratioP2;P2;SDS_P1;SDS_P2;PMS_P1;PMS_P2;Temp;Humidity;BMP_temperature;BMP_pressure;BME280_temperature;BME280_humidity;BME280_pressure;Samples;Min_cycle;Max_cycle;Signal;HPM_P1;HPM_P2
2021/11/14 00:00:50;;;;;;;10.07;5.60;;;;;;;;;;5015166;28;20069;-85
2021/11/14 00:03:17;;;;;;;9.00;5.15;;;;;;;;;;5014073;28;20091;-83
2021/11/14 00:05:45;;;;;;;8.43;5.15;;;;;;;;;;5015071;28;20080;-87
2021/11/14 00:08:13;;;;;;;10.85;5.25;;;;;;;;;;5012991;28;20088;-83
2021/11/14 00:10:42;;;;;;;9.43;5.90;;;;;;;;;;5018042;28;20073;-84
2021/11/14 00:13:10;;;;;;;8.80;5.70;;;;;;;;;;5021129;28;20042;-82
2021/11/14 00:15:37;;;;;;;10.60;6.10;;;;;;;;;;5019690;28;20101;-84
2021/11/14 00:18:04;;;;;;;11.75;6.72;;;;;;;;;;5019782;28;20451;-81
2021/11/14 00:20:31;;;;;;;10.77;7.40;;;;;;;;;;5020981;28;20089;-84
2021/11/14 00:22:58;;;;;;;10.23;6.47;;;;;;;;;;5020841;28;20041;-85
2021/11/14 00:25:25;;;;;;;8.77;5.13;;;;;;;;;;5019668;28;20096;-83
2021/11/14 00:27:53;;;;;;;8.82;4.72;;;;;;;;;;5019759;28;20070;-81
2021/11/14 00:30:21;;;;;;;8.48;4.93;;;;;;;;;;5019815;28;20066;-81
2021/11/14 00:32:50;;;;;;;8.32;4.43;;;;;;;;;;5020487;28;20050;-83
2021/11/14 00:35:17;;;;;;;8.80;4.93;;;;;;;;;;5019303;28;20050;-84
2021/11/14 00:37:44;;;;;;;8.82;5.03;;;;;;;;;;5019349;28;20530;-86
2021/11/14 00:40:14;;;;;;;8.82;5.20;;;;;;;;;;5020387;28;20584;-83
2021/11/14 00:42:41;;;;;;;11.18;5.78;;;;;;;;;;5018554;28;20081;-83
2021/11/14 00:45:09;;;;;;;7.65;4.70;;;;;;;;;;5018153;28;20049;-81
2021/11/14 00:47:37;;;;;;;8.20;5.15;;;;;;;;;;5018098;28;20085;-82
2021/11/14 00:50:07;;;;;;;8.70;5.18;;;;;;;;;;5018668;28;20072;-85
2021/11/14 00:52:34;;;;;;;8.30;4.95;;;;;;;;;;5020067;28;20050;-83
2021/11/14 00:55:01;;;;;;;8.05;5.05;;;;;;;;;;5019117;28;20052;-86
2021/11/14 00:57:28;;;;;;;9.55;5.15;;;;;;;;;;5015374;28;20038;-86
2021/11/14 00:59:54;;;;;;;8.15;5.10;;;;;;;;;;5022383;28;20070;-83
2021/11/14 01:02:21;;;;;;;8.60;5.70;;;;;;;;;;5020341;28;20046;-84
2021/11/14 01:04:49;;;;;;;8.50;4.95;;;;;;;;;;5020285;28;20077;-82
2021/11/14 01:07:16;;;;;;;9.82;5.45;;;;;;;;;;5017184;28;20073;-86
2021/11/14 01:09:42;;;;;;;10.02;4.82;;;;;;;;;;5018350;28;20046;-83
2021/11/14 01:12:09;;;;;;;8.80;4.68;;;;;;;;;;5018005;28;20096;-81
2021/11/14 01:14:36;;;;;;;7.72;4.82;;;;;;;;;;5018345;28;20077;-84
2021/11/14 01:17:03;;;;;;;7.68;4.40;;;;;;;;;;5017382;28;20045;-83
2021/11/14 01:19:30;;;;;;;9.40;5.38;;;;;;;;;;5018321;28;20062;-83
2021/11/14 01:21:58;;;;;;;7.18;4.30;;;;;;;;;;5016849;28;20081;-82
2021/11/14 01:24:24;;;;;;;7.57;4.68;;;;;;;;;;5016844;28;20081;-83
2021/11/14 01:26:51;;;;;;;8.25;5.13;;;;;;;;;;5017172;28;20080;-82
2021/11/14 01:29:17;;;;;;;6.50;3.97;;;;;;;;;;5017990;28;21325;-83
2021/11/14 01:31:44;;;;;;;9.02;4.93;;;;;;;;;;5018589;28;20105;-84
2021/11/14 01:34:11;;;;;;;9.73;5.70;;;;;;;;;;5017158;28;20073;-83
2021/11/14 01:36:37;;;;;;;7.63;5.20;;;;;;;;;;5016316;28;20077;-82
2021/11/14 01:39:08;;;;;;;7.20;5.03;;;;;;;;;;5015890;28;20084;-82
2021/11/14 01:41:35;;;;;;;9.40;4.97;;;;;;;;;;5015910;28;20479;-83
2021/11/14 01:44:03;;;;;;;9.55;4.88;;;;;;;;;;5016716;28;20061;-84
2021/11/14 01:46:30;;;;;;;9.65;5.28;;;;;;;;;;5017078;28;20453;-83
2021/11/14 01:48:57;;;;;;;11.65;5.50;;;;;;;;;;5016050;28;20070;-83
2021/11/14 01:51:25;;;;;;;11.65;6.13;;;;;;;;;;5017685;28;20068;-82
2021/11/14 01:53:52;;;;;;;9.85;5.60;;;;;;;;;;5017193;28;20057;-81
2021/11/14 01:56:20;;;;;;;8.88;5.13;;;;;;;;;;5017683;28;20074;-84
2021/11/14 01:58:48;;;;;;;9.90;5.47;;;;;;;;;;5017236;28;20092;-82
2021/11/14 02:01:17;;;;;;;10.15;6.18;;;;;;;;;;5019403;28;20132;-83
2021/11/14 02:03:48;;;;;;;9.63;5.70;;;;;;;;;;5017996;28;20049;-83
2021/11/14 02:06:15;;;;;;;11.88;6.60;;;;;;;;;;5017066;28;20111;-82
2021/11/14 02:08:45;;;;;;;10.27;6.82;;;;;;;;;;5018468;28;20069;-82
2021/11/14 02:11:16;;;;;;;11.50;7.20;;;;;;;;;;5017814;28;20100;-81
2021/11/14 02:13:45;;;;;;;12.20;7.15;;;;;;;;;;5017445;28;20045;-82
2021/11/14 02:16:13;;;;;;;11.45;7.50;;;;;;;;;;5018280;28;20066;-81
2021/11/14 02:18:40;;;;;;;12.65;8.13;;;;;;;;;;5018158;28;20092;-82
2021/11/14 02:21:08;;;;;;;16.98;9.38;;;;;;;;;;5017867;28;20050;-83
2021/11/14 02:23:35;;;;;;;15.93;9.05;;;;;;;;;;5017166;28;20081;-82
2021/11/14 02:26:02;;;;;;;13.20;8.75;;;;;;;;;;5016556;28;20072;-84
2021/11/14 02:28:29;;;;;;;12.07;7.85;;;;;;;;;;5018535;28;20695;-84
2021/11/14 02:30:57;;;;;;;13.73;8.30;;;;;;;;;;5018546;28;20069;-83
2021/11/14 02:33:26;;;;;;;13.18;8.45;;;;;;;;;;5017313;28;20088;-83
2021/11/14 02:35:54;;;;;;;16.65;8.75;;;;;;;;;;5018788;28;20053;-83
2021/11/14 02:38:23;;;;;;;13.93;8.40;;;;;;;;;;5016425;28;20042;-83
2021/11/14 02:40:49;;;;;;;13.00;8.35;;;;;;;;;;5017431;28;20121;-81
2021/11/14 02:43:16;;;;;;;11.82;8.07;;;;;;;;;;5020673;28;20061;-84
2021/11/14 02:45:43;;;;;;;11.85;7.85;;;;;;;;;;5018793;28;21148;-86
2021/11/14 02:48:10;;;;;;;12.30;8.23;;;;;;;;;;5017402;28;20042;-83
2021/11/14 02:50:37;;;;;;;11.95;8.25;;;;;;;;;;5018291;28;20050;-85
2021/11/14 02:53:04;;;;;;;13.95;8.13;;;;;;;;;;5017985;28;20092;-86
2021/11/14 02:55:32;;;;;;;12.10;7.03;;;;;;;;;;5016849;28;20077;-84
2021/11/14 02:57:59;;;;;;;11.32;6.88;;;;;;;;;;5016158;28;20050;-84
2021/11/14 03:00:29;;;;;;;11.82;6.72;;;;;;;;;;5015822;28;20461;-84
2021/11/14 03:02:56;;;;;;;12.45;8.68;;;;;;;;;;5014733;28;20078;-84
2021/11/14 03:05:23;;;;;;;11.27;7.60;;;;;;;;;;5015551;28;20082;-84
2021/11/14 03:07:51;;;;;;;12.23;7.85;;;;;;;;;;5017328;28;20073;-83
2021/11/14 03:10:20;;;;;;;11.43;7.47;;;;;;;;;;5015201;28;20037;-84
2021/11/14 03:12:55;;;;;;;12.07;8.15;;;;;;;;;;5016012;28;20073;-83
2021/11/14 03:15:22;;;;;;;11.40;7.53;;;;;;;;;;5015121;28;20069;-85
2021/11/14 03:17:49;;;;;;;13.13;7.32;;;;;;;;;;5015380;28;20495;-83
2021/11/14 03:20:15;;;;;;;11.85;7.43;;;;;;;;;;5015357;28;20080;-82
2021/11/14 03:22:42;;;;;;;11.63;7.32;;;;;;;;;;5015572;28;20491;-84
2021/11/14 03:25:09;;;;;;;9.52;6.40;;;;;;;;;;5015309;28;20069;-82
2021/11/14 03:27:36;;;;;;;13.98;6.93;;;;;;;;;;5014787;28;20073;-84
2021/11/14 03:30:04;;;;;;;12.07;7.22;;;;;;;;;;5015900;28;20125;-84
2021/11/14 03:32:30;;;;;;;10.25;6.50;;;;;;;;;;5016446;28;20069;-83
2021/11/14 03:34:57;;;;;;;9.32;6.00;;;;;;;;;;5014995;28;20100;-83
2021/11/14 03:37:23;;;;;;;10.45;7.22;;;;;;;;;;5016334;28;20070;-83
2021/11/14 03:39:50;;;;;;;11.18;7.43;;;;;;;;;;5017645;28;20076;-83
2021/11/14 03:42:17;;;;;;;10.07;6.72;;;;;;;;;;5017127;28;20073;-83
2021/11/14 03:44:44;;;;;;;12.90;6.65;;;;;;;;;;5017451;28;20075;-83
2021/11/14 03:47:12;;;;;;;13.45;8.98;;;;;;;;;;5020179;28;20042;-84
2021/11/14 03:49:39;;;;;;;13.90;8.18;;;;;;;;;;5019902;28;20038;-84
2021/11/14 03:52:08;;;;;;;11.45;7.07;;;;;;;;;;5018627;28;20073;-83
2021/11/14 03:54:34;;;;;;;10.25;7.22;;;;;;;;;;5018168;28;20084;-86
2021/11/14 03:57:01;;;;;;;11.30;7.18;;;;;;;;;;5019805;28;20132;-82
2021/11/14 03:59:27;;;;;;;11.35;7.32;;;;;;;;;;5018667;28;20066;-84
2021/11/14 04:01:54;;;;;;;9.10;6.20;;;;;;;;;;5019969;28;20084;-82
2021/11/14 04:04:22;;;;;;;18.23;10.40;;;;;;;;;;5019106;28;20045;-83
2021/11/14 04:06:48;;;;;;;17.73;11.50;;;;;;;;;;5019114;28;20043;-82
2021/11/14 04:09:15;;;;;;;12.85;8.43;;;;;;;;;;5019885;28;20069;-84
2021/11/14 04:11:41;;;;;;;13.73;8.40;;;;;;;;;;5019546;28;20077;-84
2021/11/14 04:14:08;;;;;;;12.73;7.40;;;;;;;;;;5018645;28;20061;-85
2021/11/14 04:16:35;;;;;;;12.40;7.13;;;;;;;;;;5018520;28;20049;-84
2021/11/14 04:19:01;;;;;;;10.75;6.63;;;;;;;;;;5018780;28;20042;-84
2021/11/14 04:21:29;;;;;;;9.95;6.45;;;;;;;;;;5019691;28;20454;-83
2021/11/14 04:23:56;;;;;;;10.85;6.65;;;;;;;;;;5020227;28;20081;-82
2021/11/14 04:26:23;;;;;;;8.98;5.82;;;;;;;;;;5020677;28;20092;-82
2021/11/14 04:28:49;;;;;;;10.98;7.53;;;;;;;;;;5021979;28;20057;-84
2021/11/14 04:31:16;;;;;;;11.85;7.00;;;;;;;;;;5019678;28;20089;-83
2021/11/14 04:33:43;;;;;;;11.63;7.07;;;;;;;;;;5018456;28;20073;-83
2021/11/14 04:36:10;;;;;;;11.95;7.18;;;;;;;;;;5018288;28;20061;-84
2021/11/14 04:38:38;;;;;;;12.20;8.32;;;;;;;;;;5020602;28;20074;-82
2021/11/14 04:41:05;;;;;;;11.65;7.88;;;;;;;;;;5019339;28;20528;-83
2021/11/14 04:43:31;;;;;;;11.25;6.55;;;;;;;;;;5018793;28;20088;-84
2021/11/14 04:45:58;;;;;;;13.23;8.20;;;;;;;;;;5018468;28;20065;-82
2021/11/14 04:48:25;;;;;;;9.95;6.78;;;;;;;;;;5017360;28;20078;-83
2021/11/14 04:50:52;;;;;;;11.30;7.38;;;;;;;;;;5017438;28;20104;-85
2021/11/14 04:53:19;;;;;;;10.35;6.70;;;;;;;;;;5018705;28;20072;-82
2021/11/14 04:55:47;;;;;;;9.50;6.45;;;;;;;;;;5018431;28;20100;-85
2021/11/14 04:58:14;;;;;;;10.25;7.45;;;;;;;;;;5018479;28;20133;-83
2021/11/14 05:00:42;;;;;;;11.50;7.60;;;;;;;;;;5018706;28;20049;-86
2021/11/14 05:03:09;;;;;;;11.68;7.28;;;;;;;;;;5019162;28;20037;-82
2021/11/14 05:05:37;;;;;;;9.10;6.72;;;;;;;;;;5019020;28;20049;-83
2021/11/14 05:08:04;;;;;;;11.30;7.57;;;;;;;;;;5018628;28;20074;-82
2021/11/14 05:10:31;;;;;;;10.20;6.75;;;;;;;;;;5018228;28;20065;-84
2021/11/14 05:13:00;;;;;;;8.90;6.13;;;;;;;;;;5017680;28;20509;-81
2021/11/14 05:15:26;;;;;;;8.50;6.07;;;;;;;;;;5017858;28;20077;-83
2021/11/14 05:17:53;;;;;;;10.60;6.50;;;;;;;;;;5017889;28;20510;-82
2021/11/14 05:20:20;;;;;;;8.95;5.75;;;;;;;;;;5018569;28;20120;-85
2021/11/14 05:22:46;;;;;;;10.57;7.03;;;;;;;;;;5016423;28;20117;-82
2021/11/14 05:25:13;;;;;;;12.00;7.72;;;;;;;;;;5016744;28;20088;-81
2021/11/14 05:27:39;;;;;;;11.10;7.35;;;;;;;;;;5017867;28;20048;-82
2021/11/14 05:30:10;;;;;;;16.90;8.40;;;;;;;;;;5018061;28;20093;-84
2021/11/14 05:32:37;;;;;;;16.10;8.68;;;;;;;;;;5017029;28;20042;-83
2021/11/14 05:35:05;;;;;;;18.15;11.25;;;;;;;;;;5016989;28;20077;-83
2021/11/14 05:37:32;;;;;;;17.80;10.93;;;;;;;;;;5015786;28;20046;-81
2021/11/14 05:39:58;;;;;;;14.48;9.55;;;;;;;;;;5017705;28;20092;-82
2021/11/14 05:42:25;;;;;;;15.30;9.68;;;;;;;;;;5015750;28;20065;-83
2021/11/14 05:44:52;;;;;;;20.17;10.75;;;;;;;;;;5017840;28;20085;-82
2021/11/14 05:47:20;;;;;;;20.23;10.82;;;;;;;;;;5016138;28;20050;-82
2021/11/14 05:49:46;;;;;;;21.80;11.55;;;;;;;;;;5017218;28;20095;-83
2021/11/14 05:52:13;;;;;;;18.23;10.55;;;;;;;;;;5016331;28;20161;-83
2021/11/14 05:54:40;;;;;;;15.48;10.43;;;;;;;;;;5016764;28;20099;-83
2021/11/14 05:57:06;;;;;;;29.02;17.40;;;;;;;;;;5017440;28;20482;-83
2021/11/14 05:59:38;;;;;;;15.07;10.82;;;;;;;;;;5016139;28;20104;-82
2021/11/14 06:02:09;;;;;;;17.60;10.55;;;;;;;;;;5015985;28;20087;-82
2021/11/14 06:04:48;;;;;;;12.20;8.68;;;;;;;;;;5016422;28;20073;-84
2021/11/14 06:07:14;;;;;;;13.30;8.40;;;;;;;;;;5015829;28;20057;-82
2021/11/14 06:09:41;;;;;;;11.98;7.93;;;;;;;;;;5016757;28;20144;-83
2021/11/14 06:12:08;;;;;;;12.63;8.18;;;;;;;;;;5017561;28;20077;-84
2021/11/14 06:14:35;;;;;;;13.35;8.52;;;;;;;;;;5016783;28;20085;-84
2021/11/14 06:17:02;;;;;;;14.30;9.20;;;;;;;;;;5016583;28;20077;-83
2021/11/14 06:19:28;;;;;;;14.60;8.60;;;;;;;;;;5016454;28;20046;-83
2021/11/14 06:21:56;;;;;;;17.88;9.00;;;;;;;;;;5015171;28;20073;-82
2021/11/14 06:24:23;;;;;;;16.02;8.55;;;;;;;;;;5017473;28;20045;-81
2021/11/14 06:26:49;;;;;;;16.55;10.02;;;;;;;;;;5016805;28;20046;-83
2021/11/14 06:29:16;;;;;;;16.23;9.10;;;;;;;;;;5017568;28;20076;-84
2021/11/14 06:31:42;;;;;;;21.95;11.07;;;;;;;;;;5015569;28;20081;-83
2021/11/14 06:34:09;;;;;;;19.42;10.93;;;;;;;;;;5016268;28;20058;-84
2021/11/14 06:36:35;;;;;;;17.83;10.30;;;;;;;;;;5017797;28;20092;-81
2021/11/14 06:39:04;;;;;;;22.60;11.25;;;;;;;;;;5016908;28;20069;-86
2021/11/14 06:41:30;;;;;;;20.70;10.65;;;;;;;;;;5016343;28;20106;-83
2021/11/14 06:43:57;;;;;;;24.65;11.35;;;;;;;;;;5015230;28;20049;-82
2021/11/14 06:46:23;;;;;;;23.77;11.73;;;;;;;;;;5016436;28;20750;-82
2021/11/14 06:48:50;;;;;;;23.65;12.35;;;;;;;;;;5017130;28;20080;-81
2021/11/14 06:51:16;;;;;;;25.02;12.75;;;;;;;;;;5018129;28;20081;-82
2021/11/14 06:53:43;;;;;;;24.20;11.88;;;;;;;;;;5013986;28;20065;-82
2021/11/14 06:56:11;;;;;;;22.98;12.60;;;;;;;;;;5016764;28;20065;-85
2021/11/14 06:58:37;;;;;;;26.00;13.18;;;;;;;;;;5017128;28;20069;-83
2021/11/14 07:01:04;;;;;;;24.88;12.57;;;;;;;;;;5017045;28;20045;-84
2021/11/14 07:03:30;;;;;;;29.02;12.85;;;;;;;;;;5016105;28;20080;-84
2021/11/14 07:05:57;;;;;;;24.67;12.07;;;;;;;;;;5015534;28;20073;-84
2021/11/14 07:08:23;;;;;;;23.23;12.00;;;;;;;;;;5016313;28;20074;-83
2021/11/14 07:10:50;;;;;;;24.38;13.95;;;;;;;;;;5015597;28;20085;-83
2021/11/14 07:13:18;;;;;;;22.83;13.52;;;;;;;;;;5015004;28;20406;-85
2021/11/14 07:15:45;;;;;;;26.90;13.63;;;;;;;;;;5016813;28;20072;-83
2021/11/14 07:18:11;;;;;;;24.55;13.25;;;;;;;;;;5015993;28;20046;-85
2021/11/14 07:20:38;;;;;;;23.83;13.57;;;;;;;;;;5019510;28;20088;-83
2021/11/14 07:23:04;;;;;;;25.35;14.02;;;;;;;;;;5022135;28;20550;-83
2021/11/14 07:25:31;;;;;;;26.13;14.35;;;;;;;;;;5024733;28;20060;-84
2021/11/14 07:27:58;;;;;;;27.05;14.27;;;;;;;;;;5022145;28;20045;-84
2021/11/14 07:30:26;;;;;;;27.77;14.32;;;;;;;;;;5020893;28;20050;-84
2021/11/14 07:32:54;;;;;;;27.60;15.52;;;;;;;;;;5020155;28;20681;-83
2021/11/14 07:35:23;;;;;;;30.35;16.38;;;;;;;;;;5020211;28;20934;-83
2021/11/14 07:37:50;;;;;;;27.20;14.30;;;;;;;;;;5021411;28;20128;-84
2021/11/14 07:40:18;;;;;;;27.73;15.25;;;;;;;;;;5021178;28;20510;-85
2021/11/14 07:42:45;;;;;;;26.55;15.75;;;;;;;;;;5020084;28;20050;-83
2021/11/14 07:45:14;;;;;;;28.85;15.95;;;;;;;;;;5020687;28;20046;-85
2021/11/14 07:47:42;;;;;;;37.58;17.75;;;;;;;;;;5022637;28;20068;-83
2021/11/14 07:50:09;;;;;;;35.53;16.52;;;;;;;;;;5020768;28;20482;-83
2021/11/14 07:52:36;;;;;;;29.80;15.63;;;;;;;;;;5019885;28;20085;-83
2021/11/14 07:55:04;;;;;;;37.13;17.65;;;;;;;;;;5018631;28;20069;-84
2021/11/14 07:57:30;;;;;;;40.25;19.33;;;;;;;;;;5019428;28;20056;-85
2021/11/14 07:59:57;;;;;;;37.28;18.13;;;;;;;;;;5018378;28;21383;-80
2021/11/14 08:02:23;;;;;;;35.55;17.17;;;;;;;;;;5021531;28;20089;-82
2021/11/14 08:04:52;;;;;;;35.20;16.42;;;;;;;;;;5019753;28;20413;-83
2021/11/14 08:07:18;;;;;;;33.15;16.02;;;;;;;;;;5019261;28;20050;-83
2021/11/14 08:09:45;;;;;;;41.42;16.98;;;;;;;;;;5017993;28;20038;-83
2021/11/14 08:12:12;;;;;;;32.85;15.40;;;;;;;;;;5019965;28;20069;-83
2021/11/14 08:14:38;;;;;;;34.10;15.30;;;;;;;;;;5021128;28;20050;-81
2021/11/14 08:17:05;;;;;;;30.00;16.00;;;;;;;;;;5019282;28;20176;-80
2021/11/14 08:19:32;;;;;;;28.50;15.55;;;;;;;;;;5020525;28;20085;-83
2021/11/14 08:22:00;;;;;;;34.40;16.58;;;;;;;;;;5023313;28;20073;-81
2021/11/14 08:24:26;;;;;;;33.15;17.13;;;;;;;;;;5021103;28;20074;-81
2021/11/14 08:26:53;;;;;;;28.70;15.65;;;;;;;;;;5019932;28;20141;-81
2021/11/14 08:29:20;;;;;;;27.83;14.70;;;;;;;;;;5019182;28;20080;-81
2021/11/14 08:31:46;;;;;;;33.05;16.73;;;;;;;;;;5022108;28;20046;-82
2021/11/14 08:34:13;;;;;;;29.35;15.75;;;;;;;;;;5020810;28;20050;-80
2021/11/14 08:36:39;;;;;;;29.25;16.33;;;;;;;;;;5020100;28;20054;-82
2021/11/14 08:39:08;;;;;;;32.63;16.50;;;;;;;;;;5020970;28;20046;-80
2021/11/14 08:41:35;;;;;;;31.13;16.65;;;;;;;;;;5020994;28;20050;-81
2021/11/14 08:44:01;;;;;;;29.02;15.65;;;;;;;;;;5023320;28;20042;-81
2021/11/14 08:46:28;;;;;;;30.27;16.25;;;;;;;;;;5020857;28;20906;-80
2021/11/14 08:48:54;;;;;;;29.52;15.85;;;;;;;;;;5022583;28;20049;-81
2021/11/14 08:51:23;;;;;;;28.15;14.88;;;;;;;;;;5022126;28;20050;-82
2021/11/14 08:53:49;;;;;;;26.90;15.52;;;;;;;;;;5023539;28;20124;-82
2021/11/14 08:56:17;;;;;;;30.38;16.73;;;;;;;;;;5022269;28;20042;-82
2021/11/14 08:58:44;;;;;;;29.52;17.60;;;;;;;;;;5020671;28;20112;-81
2021/11/14 09:01:11;;;;;;;25.52;14.45;;;;;;;;;;5021730;28;20077;-83
2021/11/14 09:03:37;;;;;;;24.90;13.90;;;;;;;;;;5020757;28;20080;-81
2021/11/14 09:06:05;;;;;;;27.73;15.73;;;;;;;;;;5017485;28;20077;-84
2021/11/14 09:08:31;;;;;;;25.77;14.68;;;;;;;;;;5020228;28;20053;-82
2021/11/14 09:10:58;;;;;;;22.75;13.90;;;;;;;;;;5022339;28;20069;-83
2021/11/14 09:13:26;;;;;;;24.48;15.35;;;;;;;;;;5020912;28;20841;-81
2021/11/14 09:15:53;;;;;;;26.25;17.45;;;;;;;;;;5018837;28;20046;-82
2021/11/14 09:18:20;;;;;;;25.75;16.67;;;;;;;;;;5019159;28;20049;-82
2021/11/14 09:20:48;;;;;;;23.90;15.48;;;;;;;;;;5020825;28;20077;-83
2021/11/14 09:23:15;;;;;;;25.15;14.23;;;;;;;;;;5017598;28;20069;-81
2021/11/14 09:25:42;;;;;;;23.98;14.35;;;;;;;;;;5019509;28;20070;-80
2021/11/14 09:28:08;;;;;;;26.77;14.40;;;;;;;;;;5016769;28;20533;-80
2021/11/14 09:30:37;;;;;;;24.77;14.82;;;;;;;;;;5019713;28;20068;-81
2021/11/14 09:33:05;;;;;;;23.13;13.48;;;;;;;;;;5020276;28;20494;-82
2021/11/14 09:35:31;;;;;;;26.48;14.77;;;;;;;;;;5017484;28;20077;-79
2021/11/14 09:37:58;;;;;;;27.48;15.60;;;;;;;;;;5017115;28;20045;-82
2021/11/14 09:40:24;;;;;;;26.88;15.63;;;;;;;;;;5019272;28;20081;-83
2021/11/14 09:42:51;;;;;;;24.38;15.05;;;;;;;;;;5017816;28;20069;-81
2021/11/14 09:45:17;;;;;;;24.20;15.07;;;;;;;;;;5018297;28;20046;-82
2021/11/14 09:47:45;;;;;;;27.77;15.35;;;;;;;;;;5017784;28;20608;-81
2021/11/14 09:50:12;;;;;;;25.92;14.95;;;;;;;;;;5019937;28;20073;-78
2021/11/14 09:52:39;;;;;;;21.80;13.75;;;;;;;;;;5022658;28;20068;-80
2021/11/14 09:55:08;;;;;;;28.05;15.60;;;;;;;;;;5017646;28;20491;-80
2021/11/14 09:57:34;;;;;;;27.77;14.07;;;;;;;;;;5017415;28;20046;-82
2021/11/14 10:00:01;;;;;;;25.05;15.07;;;;;;;;;;5019135;28;20189;-80
2021/11/14 10:02:28;;;;;;;25.77;15.20;;;;;;;;;;5019280;28;20065;-80
2021/11/14 10:04:56;;;;;;;25.95;15.20;;;;;;;;;;5017378;28;20053;-82
2021/11/14 10:07:23;;;;;;;23.98;14.23;;;;;;;;;;5019499;28;20077;-81
2021/11/14 10:09:52;;;;;;;26.92;14.88;;;;;;;;;;5019822;28;20084;-83
2021/11/14 10:12:21;;;;;;;26.08;15.32;;;;;;;;;;5018028;28;20046;-82
2021/11/14 10:14:49;;;;;;;28.05;15.85;;;;;;;;;;5015769;28;20520;-81
2021/11/14 10:17:21;;;;;;;22.40;14.10;;;;;;;;;;5018105;28;20050;-82
2021/11/14 10:20:08;;;;;;;25.73;15.23;;;;;;;;;;5012445;28;20085;-85
2021/11/14 10:22:35;;;;;;;21.55;13.18;;;;;;;;;;5013715;28;20104;-84
2021/11/14 10:25:03;;;;;;;25.23;14.25;;;;;;;;;;5017053;28;20050;-83
2021/11/14 10:27:30;;;;;;;26.13;15.27;;;;;;;;;;5013749;28;20073;-82
2021/11/14 10:29:57;;;;;;;25.45;15.85;;;;;;;;;;5014273;28;20068;-82
2021/11/14 10:32:26;;;;;;;23.13;15.65;;;;;;;;;;5014538;28;20095;-84
2021/11/14 10:34:57;;;;;;;25.70;14.65;;;;;;;;;;5014648;28;20046;-81
2021/11/14 10:37:26;;;;;;;26.70;13.82;;;;;;;;;;5011361;28;20134;-84
2021/11/14 10:39:53;;;;;;;24.60;14.18;;;;;;;;;;5017341;28;20052;-80
2021/11/14 10:42:20;;;;;;;25.27;14.23;;;;;;;;;;5015445;28;20045;-80
2021/11/14 10:44:52;;;;;;;24.10;13.85;;;;;;;;;;5016847;28;20077;-82
2021/11/14 10:47:22;;;;;;;23.58;13.75;;;;;;;;;;5016732;28;20076;-80
2021/11/14 10:49:54;;;;;;;19.45;13.07;;;;;;;;;;5015257;28;20173;-80
2021/11/14 10:52:20;;;;;;;21.17;13.75;;;;;;;;;;5016692;28;20084;-81
2021/11/14 10:54:53;;;;;;;25.40;13.63;;;;;;;;;;5018206;28;20077;-81
2021/11/14 10:57:20;;;;;;;24.33;13.23;;;;;;;;;;5015187;28;20081;-82
2021/11/14 10:59:48;;;;;;;21.13;13.95;;;;;;;;;;5016514;28;20103;-82
2021/11/14 11:02:16;;;;;;;22.35;13.07;;;;;;;;;;5017518;28;20151;-81
2021/11/14 11:04:43;;;;;;;26.63;14.05;;;;;;;;;;5014745;28;20085;-81
2021/11/14 11:07:11;;;;;;;25.55;15.45;;;;;;;;;;5014715;28;20077;-79
2021/11/14 11:09:39;;;;;;;28.27;15.60;;;;;;;;;;5016736;28;21497;-80
2021/11/14 11:12:17;;;;;;;37.50;20.65;;;;;;;;;;5016961;28;20133;-80
2021/11/14 11:14:58;;;;;;;31.60;17.67;;;;;;;;;;5021560;28;20085;-79
2021/11/14 11:17:25;;;;;;;27.88;14.00;;;;;;;;;;5013642;28;20060;-80
2021/11/14 11:19:52;;;;;;;26.63;17.58;;;;;;;;;;5013862;28;20495;-80
2021/11/14 11:22:19;;;;;;;25.58;14.27;;;;;;;;;;5016417;28;20077;-81
2021/11/14 11:24:51;;;;;;;28.52;16.10;;;;;;;;;;5016762;28;20050;-81
2021/11/14 11:27:19;;;;;;;24.33;14.05;;;;;;;;;;5016399;28;20073;-82
2021/11/14 11:29:47;;;;;;;25.15;14.55;;;;;;;;;;5018212;28;20076;-82
2021/11/14 11:32:15;;;;;;;21.33;12.57;;;;;;;;;;5018967;28;20057;-82
2021/11/14 11:34:42;;;;;;;22.55;12.30;;;;;;;;;;5019865;28;20087;-80
2021/11/14 11:37:09;;;;;;;23.48;12.23;;;;;;;;;;5016483;28;20073;-81
2021/11/14 11:39:36;;;;;;;22.52;13.13;;;;;;;;;;5018494;28;20050;-83
2021/11/14 11:42:03;;;;;;;22.85;13.93;;;;;;;;;;5022395;28;20068;-83
2021/11/14 11:44:32;;;;;;;24.13;12.50;;;;;;;;;;5021240;28;20057;-81
2021/11/14 11:47:03;;;;;;;21.20;12.35;;;;;;;;;;5018713;28;20057;-80
2021/11/14 11:49:31;;;;;;;20.52;12.85;;;;;;;;;;5020659;28;20081;-81
2021/11/14 11:51:59;;;;;;;22.40;14.13;;;;;;;;;;5019243;28;20089;-82
2021/11/14 11:54:28;;;;;;;19.92;12.40;;;;;;;;;;5018485;28;20123;-81
2021/11/14 11:57:00;;;;;;;21.90;12.77;;;;;;;;;;5018693;28;20088;-83
2021/11/14 11:59:29;;;;;;;21.05;12.05;;;;;;;;;;5017412;28;20046;-81
2021/11/14 12:01:59;;;;;;;21.85;13.00;;;;;;;;;;5018929;28;20049;-80
2021/11/14 12:04:28;;;;;;;20.45;11.50;;;;;;;;;;5020774;28;20069;-80
2021/11/14 12:06:56;;;;;;;21.00;12.43;;;;;;;;;;5020937;28;20082;-81
2021/11/14 12:09:24;;;;;;;18.52;10.80;;;;;;;;;;5022007;28;20082;-80
2021/11/14 12:11:51;;;;;;;21.00;11.95;;;;;;;;;;5020853;28;20042;-81
2021/11/14 12:14:21;;;;;;;18.23;11.27;;;;;;;;;;5021248;28;20050;-82
2021/11/14 12:17:00;;;;;;;19.33;11.23;;;;;;;;;;5020011;28;20085;-83
2021/11/14 12:19:28;;;;;;;19.85;10.75;;;;;;;;;;5018101;28;20134;-80
2021/11/14 12:22:01;;;;;;;16.98;9.68;;;;;;;;;;5019795;28;20065;-82
2021/11/14 12:24:28;;;;;;;17.10;10.35;;;;;;;;;;5025365;28;20085;-81
2021/11/14 12:26:55;;;;;;;18.85;10.43;;;;;;;;;;5023185;28;20403;-81
2021/11/14 12:29:31;;;;;;;16.33;9.25;;;;;;;;;;5024685;28;20085;-82
2021/11/14 12:32:01;;;;;;;16.05;10.45;;;;;;;;;;5021835;28;20046;-81
2021/11/14 12:34:29;;;;;;;18.13;10.73;;;;;;;;;;5019066;28;20046;-80
2021/11/14 12:37:10;;;;;;;18.52;10.07;;;;;;;;;;5018210;28;20107;-79
2021/11/14 12:39:38;;;;;;;16.40;10.38;;;;;;;;;;5018378;28;20046;-82
2021/11/14 12:42:07;;;;;;;15.07;8.52;;;;;;;;;;5017980;28;20477;-82
2021/11/14 12:44:37;;;;;;;16.50;9.82;;;;;;;;;;5019083;28;20109;-79
2021/11/14 12:47:18;;;;;;;14.27;8.77;;;;;;;;;;5019812;28;20100;-81
2021/11/14 12:49:47;;;;;;;17.23;10.15;;;;;;;;;;5021060;28;20085;-80
2021/11/14 12:52:23;;;;;;;15.82;9.88;;;;;;;;;;5018462;28;20438;-82
2021/11/14 12:54:50;;;;;;;;;;;;;;;;;;5022365;28;20144;-81
2021/11/14 12:57:18;;;;;;;16.77;9.80;;;;;;;;;;5017909;28;19975;-81
2021/11/14 12:59:46;;;;;;;17.58;10.93;;;;;;;;;;5018078;28;20053;-81
2021/11/14 13:02:19;;;;;;;17.40;10.57;;;;;;;;;;5019325;28;20112;-80
2021/11/14 13:04:47;;;;;;;17.88;10.68;;;;;;;;;;5019134;28;20431;-83
2021/11/14 13:07:23;;;;;;;15.73;9.95;;;;;;;;;;5017600;28;20518;-80
2021/11/14 13:09:50;;;;;;;18.60;10.50;;;;;;;;;;5018324;28;20111;-80
2021/11/14 13:12:19;;;;;;;18.10;10.10;;;;;;;;;;5016427;28;20061;-79
2021/11/14 13:14:47;;;;;;;16.02;10.43;;;;;;;;;;5018502;28;20046;-79
2021/11/14 13:17:14;;;;;;;21.67;12.38;;;;;;;;;;5020395;28;20065;-80
2021/11/14 13:19:42;;;;;;;20.48;12.30;;;;;;;;;;5019871;28;20050;-80
2021/11/14 13:22:09;;;;;;;19.25;11.90;;;;;;;;;;5019091;28;20069;-81
2021/11/14 13:24:36;;;;;;;24.45;14.25;;;;;;;;;;5021401;28;20071;-80
2021/11/14 13:27:08;;;;;;;21.20;13.00;;;;;;;;;;5019658;28;20054;-82
2021/11/14 13:29:37;;;;;;;21.95;13.32;;;;;;;;;;5017471;28;20069;-79
2021/11/14 13:32:06;;;;;;;22.65;13.50;;;;;;;;;;5011238;28;20454;-80
2021/11/14 13:34:35;;;;;;;23.50;14.45;;;;;;;;;;5014137;28;20123;-79
2021/11/14 13:37:06;;;;;;;20.75;12.63;;;;;;;;;;5012261;28;20736;-81
2021/11/14 13:39:35;;;;;;;20.85;12.77;;;;;;;;;;5010207;28;20562;-80
2021/11/14 13:42:05;;;;;;;20.08;12.32;;;;;;;;;;5011760;28;20088;-81
2021/11/14 13:44:34;;;;;;;21.38;12.38;;;;;;;;;;5009925;28;20042;-80
2021/11/14 13:47:04;;;;;;;21.35;13.70;;;;;;;;;;5010120;28;20128;-79
2021/11/14 13:49:33;;;;;;;24.20;13.45;;;;;;;;;;5010781;28;20069;-80
2021/11/14 13:52:00;;;;;;;19.52;12.18;;;;;;;;;;5012836;28;20057;-80
2021/11/14 13:54:28;;;;;;;29.60;12.25;;;;;;;;;;5010208;28;20042;-80
2021/11/14 13:56:55;;;;;;;21.50;13.57;;;;;;;;;;5013032;28;20101;-80
2021/11/14 13:59:21;;;;;;;19.85;11.40;;;;;;;;;;5013398;28;20072;-78
2021/11/14 14:01:56;;;;;;;21.10;12.38;;;;;;;;;;5011505;28;20065;-79
2021/11/14 14:04:24;;;;;;;22.08;13.25;;;;;;;;;;5016687;28;20414;-79
2021/11/14 14:06:59;;;;;;;22.02;12.32;;;;;;;;;;5015238;28;20138;-80
2021/11/14 14:09:25;;;;;;;20.48;13.13;;;;;;;;;;5014429;28;20171;-79
2021/11/14 14:11:53;;;;;;;22.85;12.32;;;;;;;;;;5017143;28;20080;-81
2021/11/14 14:14:20;;;;;;;19.15;11.73;;;;;;;;;;5017724;28;20070;-78
2021/11/14 14:16:46;;;;;;;18.70;12.35;;;;;;;;;;5014842;28;20069;-81
2021/11/14 14:19:13;;;;;;;20.90;12.90;;;;;;;;;;5013200;28;20045;-79
2021/11/14 14:21:41;;;;;;;21.33;13.73;;;;;;;;;;5014076;28;20050;-80
2021/11/14 14:24:08;;;;;;;21.42;12.32;;;;;;;;;;5015325;28;20145;-78
2021/11/14 14:26:37;;;;;;;20.15;13.15;;;;;;;;;;5018533;28;20048;-80
2021/11/14 14:29:08;;;;;;;20.63;12.63;;;;;;;;;;5015747;28;20069;-81